sensor_id;sensor_type;location;lat;lon;timestamp;pressure;altitude;pressure_sealevel;temperature
8533;BMP280;4304;53.876;10.662;2023-08-06T00:01:24;100803.56;;;16.20
8533;BMP280;4304;53.876;10.662;2023-08-06T00:03:51;100795.25;;;16.15
8533;BMP280;4304;53.876;10.662;2023-08-06T00:06:16;100803.69;;;16.19
8533;BMP280;4304;53.876;10.662;2023-08-06T00:08:42;100800.81;;;16.22
8533;BMP280;4304;53.876;10.662;2023-08-06T00:11:07;100787.25;;;16.07
8533;BMP280;4304;53.876;10.662;2023-08-06T00:13:32;100795.66;;;16.11
8533;BMP280;4304;53.876;10.662;2023-08-06T00:16:13;100790.56;;;16.09
8533;BMP280;4304;53.876;10.662;2023-08-06T00:18:39;100790.53;;;16.00
8533;BMP280;4304;53.876;10.662;2023-08-06T00:21:04;100794.81;;;16.01
8533;BMP280;4304;53.876;10.662;2023-08-06T00:23:29;100802.00;;;15.99
8533;BMP280;4304;53.876;10.662;2023-08-06T00:25:55;100800.19;;;15.99
8533;BMP280;4304;53.876;10.662;2023-08-06T00:28:20;100797.69;;;15.98
8533;BMP280;4304;53.876;10.662;2023-08-06T00:30:45;100806.81;;;15.94
8533;BMP280;4304;53.876;10.662;2023-08-06T00:33:11;100813.97;;;15.92
8533;BMP280;4304;53.876;10.662;2023-08-06T00:35:36;100819.75;;;15.86
8533;BMP280;4304;53.876;10.662;2023-08-06T00:38:02;100812.59;;;15.88
8533;BMP280;4304;53.876;10.662;2023-08-06T00:40:27;100811.72;;;15.78
8533;BMP280;4304;53.876;10.662;2023-08-06T00:42:55;100806.66;;;15.86
8533;BMP280;4304;53.876;10.662;2023-08-06T00:45:20;100804.03;;;15.86
8533;BMP280;4304;53.876;10.662;2023-08-06T00:47:46;100808.28;;;15.87
8533;BMP280;4304;53.876;10.662;2023-08-06T00:50:12;100814.91;;;15.81
8533;BMP280;4304;53.876;10.662;2023-08-06T00:52:37;100826.38;;;15.81
8533;BMP280;4304;53.876;10.662;2023-08-06T00:55:03;100826.50;;;15.79
8533;BMP280;4304;53.876;10.662;2023-08-06T00:57:29;100805.94;;;15.75
8533;BMP280;4304;53.876;10.662;2023-08-06T00:59:54;100809.81;;;15.80
8533;BMP280;4304;53.876;10.662;2023-08-06T01:02:20;100798.91;;;15.75
8533;BMP280;4304;53.876;10.662;2023-08-06T01:04:45;100793.22;;;15.70
8533;BMP280;4304;53.876;10.662;2023-08-06T01:15:25;100783.31;;;15.64
8533;BMP280;4304;53.876;10.662;2023-08-06T01:17:53;100790.75;;;15.69
8533;BMP280;4304;53.876;10.662;2023-08-06T01:20:18;100770.75;;;15.68
8533;BMP280;4304;53.876;10.662;2023-08-06T01:22:44;100776.44;;;15.73
8533;BMP280;4304;53.876;10.662;2023-08-06T01:25:09;100770.06;;;15.75
8533;BMP280;4304;53.876;10.662;2023-08-06T01:27:46;100770.19;;;15.74
8533;BMP280;4304;53.876;10.662;2023-08-06T01:30:16;100769.94;;;15.77
8533;BMP280;4304;53.876;10.662;2023-08-06T01:32:44;100762.63;;;15.80
8533;BMP280;4304;53.876;10.662;2023-08-06T01:35:12;100760.44;;;15.85
8533;BMP280;4304;53.876;10.662;2023-08-06T01:37:39;100747.19;;;15.77
8533;BMP280;4304;53.876;10.662;2023-08-06T01:40:09;100738.91;;;15.81
8533;BMP280;4304;53.876;10.662;2023-08-06T01:42:35;100735.47;;;15.81
8533;BMP280;4304;53.876;10.662;2023-08-06T01:45:00;100720.16;;;15.77
8533;BMP280;4304;53.876;10.662;2023-08-06T01:47:25;100726.63;;;15.82
8533;BMP280;4304;53.876;10.662;2023-08-06T01:49:51;100726.63;;;15.82
8533;BMP280;4304;53.876;10.662;2023-08-06T01:52:16;100721.69;;;15.88
8533;BMP280;4304;53.876;10.662;2023-08-06T01:54:41;100714.66;;;15.89
8533;BMP280;4304;53.876;10.662;2023-08-06T01:57:07;100728.44;;;15.81
8533;BMP280;4304;53.876;10.662;2023-08-06T01:59:32;100717.53;;;15.77
8533;BMP280;4304;53.876;10.662;2023-08-06T02:01:57;100722.94;;;15.84
8533;BMP280;4304;53.876;10.662;2023-08-06T02:04:23;100717.00;;;15.82
8533;BMP280;4304;53.876;10.662;2023-08-06T02:06:48;100716.59;;;15.78
8533;BMP280;4304;53.876;10.662;2023-08-06T02:09:13;100711.31;;;15.68
8533;BMP280;4304;53.876;10.662;2023-08-06T02:11:39;100702.09;;;15.64
8533;BMP280;4304;53.876;10.662;2023-08-06T02:14:04;100706.91;;;15.69
8533;BMP280;4304;53.876;10.662;2023-08-06T02:16:29;100708.31;;;15.73
8533;BMP280;4304;53.876;10.662;2023-08-06T02:18:55;100698.19;;;15.59
8533;BMP280;4304;53.876;10.662;2023-08-06T02:21:20;100696.28;;;15.51
8533;BMP280;4304;53.876;10.662;2023-08-06T02:23:45;100687.72;;;15.49
8533;BMP280;4304;53.876;10.662;2023-08-06T02:26:11;100688.81;;;15.47
8533;BMP280;4304;53.876;10.662;2023-08-06T02:28:36;100709.91;;;15.45
8533;BMP280;4304;53.876;10.662;2023-08-06T02:31:01;100710.03;;;15.44
8533;BMP280;4304;53.876;10.662;2023-08-06T02:33:27;100713.50;;;15.54
8533;BMP280;4304;53.876;10.662;2023-08-06T02:36:01;100699.16;;;15.48
8533;BMP280;4304;53.876;10.662;2023-08-06T02:38:27;100709.63;;;15.48
8533;BMP280;4304;53.876;10.662;2023-08-06T02:40:52;100702.03;;;15.45
8533;BMP280;4304;53.876;10.662;2023-08-06T02:43:17;100696.13;;;15.43
8533;BMP280;4304;53.876;10.662;2023-08-06T02:45:43;100692.25;;;15.38
8533;BMP280;4304;53.876;10.662;2023-08-06T02:48:08;100688.09;;;15.36
8533;BMP280;4304;53.876;10.662;2023-08-06T02:50:40;100689.22;;;15.33
8533;BMP280;4304;53.876;10.662;2023-08-06T02:53:09;100674.31;;;15.34
8533;BMP280;4304;53.876;10.662;2023-08-06T02:55:34;100665.06;;;15.30
8533;BMP280;4304;53.876;10.662;2023-08-06T02:58:01;100670.28;;;15.30
8533;BMP280;4304;53.876;10.662;2023-08-06T03:00:27;100668.78;;;15.27
8533;BMP280;4304;53.876;10.662;2023-08-06T03:02:53;100671.28;;;15.29
8533;BMP280;4304;53.876;10.662;2023-08-06T03:05:18;100665.34;;;15.27
8533;BMP280;4304;53.876;10.662;2023-08-06T03:07:43;100661.63;;;15.29
8533;BMP280;4304;53.876;10.662;2023-08-06T03:10:09;100654.44;;;15.22
8533;BMP280;4304;53.876;10.662;2023-08-06T03:12:34;100655.13;;;15.24
8533;BMP280;4304;53.876;10.662;2023-08-06T03:15:00;100651.03;;;15.31
8533;BMP280;4304;53.876;10.662;2023-08-06T03:17:25;100648.53;;;15.29
8533;BMP280;4304;53.876;10.662;2023-08-06T03:19:50;100647.44;;;15.32
8533;BMP280;4304;53.876;10.662;2023-08-06T03:22:16;100648.78;;;15.26
8533;BMP280;4304;53.876;10.662;2023-08-06T03:24:41;100655.00;;;15.25
8533;BMP280;4304;53.876;10.662;2023-08-06T03:27:06;100645.75;;;15.21
8533;BMP280;4304;53.876;10.662;2023-08-06T03:29:35;100642.47;;;15.29
8533;BMP280;4304;53.876;10.662;2023-08-06T03:32:00;100635.84;;;15.25
8533;BMP280;4304;53.876;10.662;2023-08-06T03:34:25;100634.34;;;15.22
8533;BMP280;4304;53.876;10.662;2023-08-06T03:36:51;100629.09;;;15.22
8533;BMP280;4304;53.876;10.662;2023-08-06T03:39:16;100627.97;;;15.25
8533;BMP280;4304;53.876;10.662;2023-08-06T03:41:41;100610.22;;;15.19
8533;BMP280;4304;53.876;10.662;2023-08-06T03:44:07;100613.38;;;15.22
8533;BMP280;4304;53.876;10.662;2023-08-06T03:46:32;100612.28;;;15.25
8533;BMP280;4304;53.876;10.662;2023-08-06T03:49:02;100601.28;;;15.31
8533;BMP280;4304;53.876;10.662;2023-08-06T03:51:27;100604.72;;;15.31
8533;BMP280;4304;53.876;10.662;2023-08-06T03:53:53;100602.38;;;15.28
8533;BMP280;4304;53.876;10.662;2023-08-06T03:56:18;100593.97;;;15.34
8533;BMP280;4304;53.876;10.662;2023-08-06T03:58:44;100594.66;;;15.36
8533;BMP280;4304;53.876;10.662;2023-08-06T04:01:09;100589.97;;;15.30
8533;BMP280;4304;53.876;10.662;2023-08-06T04:03:34;100593.56;;;15.38
8533;BMP280;4304;53.876;10.662;2023-08-06T04:06:02;100589.97;;;15.39
8533;BMP280;4304;53.876;10.662;2023-08-06T04:08:27;100576.75;;;15.32
8533;BMP280;4304;53.876;10.662;2023-08-06T04:10:53;100577.56;;;15.32
8533;BMP280;4304;53.876;10.662;2023-08-06T04:13:18;100574.28;;;15.30
8533;BMP280;4304;53.876;10.662;2023-08-06T04:15:44;100573.72;;;15.36
8533;BMP280;4304;53.876;10.662;2023-08-06T04:18:09;100581.03;;;15.42
8533;BMP280;4304;53.876;10.662;2023-08-06T04:20:34;100571.22;;;15.35
8533;BMP280;4304;53.876;10.662;2023-08-06T04:23:05;100578.69;;;15.39
8533;BMP280;4304;53.876;10.662;2023-08-06T04:25:31;100587.34;;;15.39
8533;BMP280;4304;53.876;10.662;2023-08-06T04:27:56;100586.69;;;15.47
8533;BMP280;4304;53.876;10.662;2023-08-06T04:30:21;100588.63;;;15.45
8533;BMP280;4304;53.876;10.662;2023-08-06T04:32:49;100584.06;;;15.47
8533;BMP280;4304;53.876;10.662;2023-08-06T04:35:14;100586.69;;;15.47
8533;BMP280;4304;53.876;10.662;2023-08-06T04:37:40;100595.78;;;15.52
8533;BMP280;4304;53.876;10.662;2023-08-06T04:40:05;100596.34;;;15.46
8533;BMP280;4304;53.876;10.662;2023-08-06T04:42:31;100606.97;;;15.54
8533;BMP280;4304;53.876;10.662;2023-08-06T04:44:56;100610.25;;;15.47
8533;BMP280;4304;53.876;10.662;2023-08-06T04:47:22;100609.56;;;15.45
8533;BMP280;4304;53.876;10.662;2023-08-06T04:49:47;100604.63;;;15.51
8533;BMP280;4304;53.876;10.662;2023-08-06T04:52:12;100596.19;;;15.57
8533;BMP280;4304;53.876;10.662;2023-08-06T04:54:38;100600.88;;;15.63
8533;BMP280;4304;53.876;10.662;2023-08-06T04:57:03;100598.28;;;15.63
8533;BMP280;4304;53.876;10.662;2023-08-06T04:59:29;100598.94;;;15.65
8533;BMP280;4304;53.876;10.662;2023-08-06T05:01:54;100599.09;;;15.73
8533;BMP280;4304;53.876;10.662;2023-08-06T05:04:20;100604.59;;;15.80
8533;BMP280;4304;53.876;10.662;2023-08-06T05:06:45;100588.88;;;15.70
8533;BMP280;4304;53.876;10.662;2023-08-06T05:09:10;100594.97;;;15.61
8533;BMP280;4304;53.876;10.662;2023-08-06T05:11:36;100594.97;;;15.61
8533;BMP280;4304;53.876;10.662;2023-08-06T05:14:01;100587.25;;;15.69
8533;BMP280;4304;53.876;10.662;2023-08-06T05:16:26;100578.97;;;15.64
8533;BMP280;4304;53.876;10.662;2023-08-06T05:18:52;100587.75;;;15.82
8533;BMP280;4304;53.876;10.662;2023-08-06T05:21:17;100594.13;;;15.70
8533;BMP280;4304;53.876;10.662;2023-08-06T05:23:42;100590.97;;;15.76
8533;BMP280;4304;53.876;10.662;2023-08-06T05:26:08;100589.44;;;15.74
8533;BMP280;4304;53.876;10.662;2023-08-06T05:28:34;100598.28;;;15.63
8533;BMP280;4304;53.876;10.662;2023-08-06T05:31:04;100594.94;;;15.71
8533;BMP280;4304;53.876;10.662;2023-08-06T05:33:29;100599.34;;;15.70
8533;BMP280;4304;53.876;10.662;2023-08-06T05:35:55;100588.06;;;15.79
8533;BMP280;4304;53.876;10.662;2023-08-06T05:38:20;100596.59;;;15.72
8533;BMP280;4304;53.876;10.662;2023-08-06T05:40:46;100589.03;;;15.59
8533;BMP280;4304;53.876;10.662;2023-08-06T05:43:11;100592.88;;;15.65
8533;BMP280;4304;53.876;10.662;2023-08-06T05:45:36;100594.56;;;15.56
8533;BMP280;4304;53.876;10.662;2023-08-06T05:48:02;100596.72;;;15.61
8533;BMP280;4304;53.876;10.662;2023-08-06T05:50:27;100595.53;;;15.74
8533;BMP280;4304;53.876;10.662;2023-08-06T05:52:52;100593.00;;;15.91
8533;BMP280;4304;53.876;10.662;2023-08-06T05:55:19;100585.00;;;15.93
8533;BMP280;4304;53.876;10.662;2023-08-06T05:57:45;100588.16;;;16.06
8533;BMP280;4304;53.876;10.662;2023-08-06T06:00:11;100593.25;;;16.07
8533;BMP280;4304;53.876;10.662;2023-08-06T06:02:36;100585.53;;;16.06
8533;BMP280;4304;53.876;10.662;2023-08-06T06:05:02;100579.34;;;15.97
8533;BMP280;4304;53.876;10.662;2023-08-06T06:07:27;100586.25;;;15.89
8533;BMP280;4304;53.876;10.662;2023-08-06T06:09:52;100585.13;;;16.01
8533;BMP280;4304;53.876;10.662;2023-08-06T06:12:18;100583.28;;;16.29
8533;BMP280;4304;53.876;10.662;2023-08-06T06:14:43;100584.16;;;16.21
8533;BMP280;4304;53.876;10.662;2023-08-06T06:17:08;100588.97;;;16.16
8533;BMP280;4304;53.876;10.662;2023-08-06T06:19:34;100586.63;;;16.03
8533;BMP280;4304;53.876;10.662;2023-08-06T06:21:59;100590.22;;;16.12
8533;BMP280;4304;53.876;10.662;2023-08-06T06:24:25;100589.50;;;16.10
8533;BMP280;4304;53.876;10.662;2023-08-06T06:26:50;100591.47;;;16.26
8533;BMP280;4304;53.876;10.662;2023-08-06T06:29:15;100591.59;;;16.25
8533;BMP280;4304;53.876;10.662;2023-08-06T06:31:41;100592.03;;;16.21
8533;BMP280;4304;53.876;10.662;2023-08-06T06:34:06;100587.19;;;16.25
8533;BMP280;4304;53.876;10.662;2023-08-06T06:36:31;100583.19;;;16.22
8533;BMP280;4304;53.876;10.662;2023-08-06T06:38:57;100581.66;;;16.28
8533;BMP280;4304;53.876;10.662;2023-08-06T06:41:22;100579.72;;;16.21
8533;BMP280;4304;53.876;10.662;2023-08-06T06:43:48;100574.19;;;16.24
8533;BMP280;4304;53.876;10.662;2023-08-06T06:46:13;100573.50;;;16.31
8533;BMP280;4304;53.876;10.662;2023-08-06T06:48:38;100572.75;;;16.48
8533;BMP280;4304;53.876;10.662;2023-08-06T06:51:04;100574.72;;;16.73
8533;BMP280;4304;53.876;10.662;2023-08-06T06:53:29;100571.03;;;16.66
8533;BMP280;4304;53.876;10.662;2023-08-06T06:55:55;100569.94;;;16.86
8533;BMP280;4304;53.876;10.662;2023-08-06T06:58:21;100570.38;;;16.81
8533;BMP280;4304;53.876;10.662;2023-08-06T07:00:47;100565.41;;;16.78
8533;BMP280;4304;53.876;10.662;2023-08-06T07:03:13;100581.84;;;17.07
8533;BMP280;4304;53.876;10.662;2023-08-06T07:05:39;100568.72;;;17.07
8533;BMP280;4304;53.876;10.662;2023-08-06T07:08:04;100575.25;;;17.30
8533;BMP280;4304;53.876;10.662;2023-08-06T07:10:30;100577.19;;;17.45
8533;BMP280;4304;53.876;10.662;2023-08-06T07:12:55;100585.69;;;17.12
8533;BMP280;4304;53.876;10.662;2023-08-06T07:15:21;100575.38;;;17.28
8533;BMP280;4304;53.876;10.662;2023-08-06T07:17:46;100557.97;;;17.27
8533;BMP280;4304;53.876;10.662;2023-08-06T07:20:11;100575.00;;;17.23
8533;BMP280;4304;53.876;10.662;2023-08-06T07:22:37;100569.63;;;17.15
8533;BMP280;4304;53.876;10.662;2023-08-06T07:25:02;100577.41;;;17.08
8533;BMP280;4304;53.876;10.662;2023-08-06T07:27:28;100566.59;;;17.20
8533;BMP280;4304;53.876;10.662;2023-08-06T07:29:53;100577.38;;;17.34
8533;BMP280;4304;53.876;10.662;2023-08-06T07:32:19;100577.91;;;17.38
8533;BMP280;4304;53.876;10.662;2023-08-06T07:34:44;100572.00;;;17.53
8533;BMP280;4304;53.876;10.662;2023-08-06T07:37:10;100568.91;;;17.75
8533;BMP280;4304;53.876;10.662;2023-08-06T07:39:35;100574.03;;;18.01
8533;BMP280;4304;53.876;10.662;2023-08-06T07:42:03;100573.78;;;18.30
8533;BMP280;4304;53.876;10.662;2023-08-06T07:44:31;100572.38;;;18.18
8533;BMP280;4304;53.876;10.662;2023-08-06T07:46:56;100562.63;;;17.93
8533;BMP280;4304;53.876;10.662;2023-08-06T07:49:22;100559.84;;;18.12
8533;BMP280;4304;53.876;10.662;2023-08-06T07:51:47;100568.94;;;18.17
8533;BMP280;4304;53.876;10.662;2023-08-06T07:54:12;100566.59;;;18.40
8533;BMP280;4304;53.876;10.662;2023-08-06T07:56:38;100579.91;;;18.38
8533;BMP280;4304;53.876;10.662;2023-08-06T07:59:03;100575.81;;;18.43
8533;BMP280;4304;53.876;10.662;2023-08-06T08:01:28;100555.00;;;18.58
8533;BMP280;4304;53.876;10.662;2023-08-06T08:03:54;100569.81;;;18.59
8533;BMP280;4304;53.876;10.662;2023-08-06T08:06:19;100563.66;;;18.83
8533;BMP280;4304;53.876;10.662;2023-08-06T08:08:44;100556.84;;;18.65
8533;BMP280;4304;53.876;10.662;2023-08-06T08:11:10;100570.69;;;18.67
8533;BMP280;4304;53.876;10.662;2023-08-06T08:13:35;100561.19;;;18.49
8533;BMP280;4304;53.876;10.662;2023-08-06T08:16:01;100554.25;;;18.40
8533;BMP280;4304;53.876;10.662;2023-08-06T08:18:27;100559.28;;;18.26
8533;BMP280;4304;53.876;10.662;2023-08-06T08:20:52;100555.69;;;18.60
8533;BMP280;4304;53.876;10.662;2023-08-06T08:23:18;100546.00;;;18.68
8533;BMP280;4304;53.876;10.662;2023-08-06T08:25:43;100557.19;;;18.37
8533;BMP280;4304;53.876;10.662;2023-08-06T08:28:09;100550.97;;;18.38
8533;BMP280;4304;53.876;10.662;2023-08-06T08:30:34;100547.69;;;18.44
8533;BMP280;4304;53.876;10.662;2023-08-06T08:32:59;100547.69;;;18.44
8533;BMP280;4304;53.876;10.662;2023-08-06T08:35:25;100550.66;;;18.74
8533;BMP280;4304;53.876;10.662;2023-08-06T08:37:50;100550.00;;;18.80
8533;BMP280;4304;53.876;10.662;2023-08-06T08:40:16;100553.16;;;18.91
8533;BMP280;4304;53.876;10.662;2023-08-06T08:42:42;100543.22;;;18.70
8533;BMP280;4304;53.876;10.662;2023-08-06T08:45:14;100545.25;;;18.91
8533;BMP280;4304;53.876;10.662;2023-08-06T08:47:41;100557.28;;;18.94
8533;BMP280;4304;53.876;10.662;2023-08-06T08:50:08;100556.03;;;19.06
8533;BMP280;4304;53.876;10.662;2023-08-06T08:52:35;100531.53;;;19.05
8533;BMP280;4304;53.876;10.662;2023-08-06T08:55:01;100535.81;;;19.22
8533;BMP280;4304;53.876;10.662;2023-08-06T08:57:26;100543.78;;;19.46
8533;BMP280;4304;53.876;10.662;2023-08-06T08:59:52;100529.94;;;19.75
8533;BMP280;4304;53.876;10.662;2023-08-06T09:02:18;100542.59;;;19.80
8533;BMP280;4304;53.876;10.662;2023-08-06T09:04:44;100537.53;;;19.86
8533;BMP280;4304;53.876;10.662;2023-08-06T09:07:13;100532.56;;;19.52
8533;BMP280;4304;53.876;10.662;2023-08-06T09:09:40;100524.97;;;20.04
8533;BMP280;4304;53.876;10.662;2023-08-06T09:12:15;100526.31;;;20.00
8533;BMP280;4304;53.876;10.662;2023-08-06T09:14:41;100532.88;;;20.20
8533;BMP280;4304;53.876;10.662;2023-08-06T09:17:07;100530.22;;;20.20
8533;BMP280;4304;53.876;10.662;2023-08-06T09:19:34;100508.28;;;20.19
8533;BMP280;4304;53.876;10.662;2023-08-06T09:21:59;100509.44;;;20.25
8533;BMP280;4304;53.876;10.662;2023-08-06T09:24:25;100509.88;;;20.44
8533;BMP280;4304;53.876;10.662;2023-08-06T09:26:51;100513.44;;;20.05
8533;BMP280;4304;53.876;10.662;2023-08-06T09:29:16;100511.59;;;20.21
8533;BMP280;4304;53.876;10.662;2023-08-06T09:31:47;100520.13;;;20.31
8533;BMP280;4304;53.876;10.662;2023-08-06T09:34:17;100515.38;;;20.11
8533;BMP280;4304;53.876;10.662;2023-08-06T09:36:43;100514.94;;;19.68
8533;BMP280;4304;53.876;10.662;2023-08-06T09:39:18;100521.84;;;19.45
8533;BMP280;4304;53.876;10.662;2023-08-06T09:41:44;100520.84;;;19.62
8533;BMP280;4304;53.876;10.662;2023-08-06T09:44:18;100509.50;;;19.30
8533;BMP280;4304;53.876;10.662;2023-08-06T09:46:52;100518.88;;;19.48
8533;BMP280;4304;53.876;10.662;2023-08-06T09:49:18;100514.75;;;19.54
8533;BMP280;4304;53.876;10.662;2023-08-06T09:51:45;100517.22;;;19.47
8533;BMP280;4304;53.876;10.662;2023-08-06T09:54:15;100513.47;;;19.66
8533;BMP280;4304;53.876;10.662;2023-08-06T09:56:42;100521.53;;;19.64
8533;BMP280;4304;53.876;10.662;2023-08-06T09:59:07;100521.34;;;19.73
8533;BMP280;4304;53.876;10.662;2023-08-06T10:01:34;100506.69;;;19.47
8533;BMP280;4304;53.876;10.662;2023-08-06T10:04:05;100506.84;;;19.69
8533;BMP280;4304;53.876;10.662;2023-08-06T10:06:36;100507.03;;;19.92
8533;BMP280;4304;53.876;10.662;2023-08-06T10:09:03;100512.97;;;19.86
8533;BMP280;4304;53.876;10.662;2023-08-06T10:11:29;100513.59;;;20.04
8533;BMP280;4304;53.876;10.662;2023-08-06T10:14:05;100506.84;;;19.93
8533;BMP280;4304;53.876;10.662;2023-08-06T10:16:32;100512.44;;;20.06
8533;BMP280;4304;53.876;10.662;2023-08-06T10:19:01;100503.41;;;19.93
8533;BMP280;4304;53.876;10.662;2023-08-06T10:21:30;100493.50;;;19.79
8533;BMP280;4304;53.876;10.662;2023-08-06T10:23:56;100496.97;;;19.87
8533;BMP280;4304;53.876;10.662;2023-08-06T10:26:28;100492.00;;;19.76
8533;BMP280;4304;53.876;10.662;2023-08-06T10:28:54;100495.13;;;19.80
8533;BMP280;4304;53.876;10.662;2023-08-06T10:31:28;100488.75;;;19.90
8533;BMP280;4304;53.876;10.662;2023-08-06T10:34:05;100488.66;;;20.14
8533;BMP280;4304;53.876;10.662;2023-08-06T10:36:34;100491.78;;;20.25
8533;BMP280;4304;53.876;10.662;2023-08-06T10:38:59;100492.72;;;20.32
8533;BMP280;4304;53.876;10.662;2023-08-06T10:41:28;100487.28;;;20.34
8533;BMP280;4304;53.876;10.662;2023-08-06T10:44:07;100489.78;;;20.27
8533;BMP280;4304;53.876;10.662;2023-08-06T10:46:36;100488.53;;;20.54
8533;BMP280;4304;53.876;10.662;2023-08-06T10:49:03;100476.13;;;20.16
8533;BMP280;4304;53.876;10.662;2023-08-06T10:51:29;100480.72;;;20.30
8533;BMP280;4304;53.876;10.662;2023-08-06T10:53:55;100474.16;;;20.18
8533;BMP280;4304;53.876;10.662;2023-08-06T10:56:22;100478.91;;;20.22
8533;BMP280;4304;53.876;10.662;2023-08-06T10:58:49;100482.75;;;20.12
8533;BMP280;4304;53.876;10.662;2023-08-06T11:01:15;100475.59;;;20.28
8533;BMP280;4304;53.876;10.662;2023-08-06T11:03:45;100472.78;;;20.30
8533;BMP280;4304;53.876;10.662;2023-08-06T11:06:11;100457.16;;;20.20
8533;BMP280;4304;53.876;10.662;2023-08-06T11:08:47;100471.88;;;20.53
8533;BMP280;4304;53.876;10.662;2023-08-06T11:11:14;100452.38;;;20.16
8533;BMP280;4304;53.876;10.662;2023-08-06T11:13:41;100461.28;;;20.23
8533;BMP280;4304;53.876;10.662;2023-08-06T11:16:07;100459.47;;;20.23
8533;BMP280;4304;53.876;10.662;2023-08-06T11:18:33;100443.69;;;20.46
8533;BMP280;4304;53.876;10.662;2023-08-06T11:21:02;100442.31;;;20.57
8533;BMP280;4304;53.876;10.662;2023-08-06T11:23:28;100437.66;;;20.67
8533;BMP280;4304;53.876;10.662;2023-08-06T11:25:57;100461.59;;;20.28
8533;BMP280;4304;53.876;10.662;2023-08-06T11:28:23;100460.53;;;20.45
8533;BMP280;4304;53.876;10.662;2023-08-06T11:30:49;100444.13;;;20.19
8533;BMP280;4304;53.876;10.662;2023-08-06T11:33:20;100461.13;;;20.55
8533;BMP280;4304;53.876;10.662;2023-08-06T11:35:47;100458.88;;;20.44
8533;BMP280;4304;53.876;10.662;2023-08-06T11:38:13;100446.94;;;20.17
8533;BMP280;4304;53.876;10.662;2023-08-06T11:40:38;100446.22;;;20.39
8533;BMP280;4304;53.876;10.662;2023-08-06T11:43:05;100440.72;;;20.41
8533;BMP280;4304;53.876;10.662;2023-08-06T11:45:31;100449.25;;;20.20
8533;BMP280;4304;53.876;10.662;2023-08-06T11:47:56;100431.69;;;19.89
8533;BMP280;4304;53.876;10.662;2023-08-06T11:50:27;100421.66;;;19.85
8533;BMP280;4304;53.876;10.662;2023-08-06T11:52:55;100431.34;;;20.00
8533;BMP280;4304;53.876;10.662;2023-08-06T11:55:23;100427.03;;;20.07
8533;BMP280;4304;53.876;10.662;2023-08-06T11:57:49;100430.06;;;20.34
8533;BMP280;4304;53.876;10.662;2023-08-06T12:00:14;100428.09;;;20.28
8533;BMP280;4304;53.876;10.662;2023-08-06T12:02:43;100429.31;;;20.48
8533;BMP280;4304;53.876;10.662;2023-08-06T12:05:12;100437.09;;;20.42
8533;BMP280;4304;53.876;10.662;2023-08-06T12:07:48;100431.28;;;20.16
8533;BMP280;4304;53.876;10.662;2023-08-06T12:10:15;100440.13;;;20.31
8533;BMP280;4304;53.876;10.662;2023-08-06T12:12:41;100448.75;;;20.55
8533;BMP280;4304;53.876;10.662;2023-08-06T12:15:08;100426.06;;;20.00
8533;BMP280;4304;53.876;10.662;2023-08-06T12:17:34;100429.31;;;20.18
8533;BMP280;4304;53.876;10.662;2023-08-06T12:20:00;100421.09;;;20.13
8533;BMP280;4304;53.876;10.662;2023-08-06T12:22:25;100431.88;;;20.26
8533;BMP280;4304;53.876;10.662;2023-08-06T12:24:51;100414.78;;;20.22
8533;BMP280;4304;53.876;10.662;2023-08-06T12:27:17;100429.47;;;20.55
8533;BMP280;4304;53.876;10.662;2023-08-06T12:29:47;100413.34;;;20.42
8533;BMP280;4304;53.876;10.662;2023-08-06T12:32:14;100411.81;;;20.47
8533;BMP280;4304;53.876;10.662;2023-08-06T12:34:40;100411.47;;;20.28
8533;BMP280;4304;53.876;10.662;2023-08-06T12:37:07;100413.22;;;20.35
8533;BMP280;4304;53.876;10.662;2023-08-06T12:39:32;100401.59;;;20.14
8533;BMP280;4304;53.876;10.662;2023-08-06T12:41:59;100404.44;;;20.43
8533;BMP280;4304;53.876;10.662;2023-08-06T12:44:25;100413.63;;;20.55
8533;BMP280;4304;53.876;10.662;2023-08-06T12:46:51;100399.44;;;20.17
8533;BMP280;4304;53.876;10.662;2023-08-06T12:49:17;100398.75;;;20.31
8533;BMP280;4304;53.876;10.662;2023-08-06T12:51:43;100401.69;;;19.98
8533;BMP280;4304;53.876;10.662;2023-08-06T12:54:08;100408.19;;;20.18
8533;BMP280;4304;53.876;10.662;2023-08-06T12:56:34;100380.16;;;20.17
8533;BMP280;4304;53.876;10.662;2023-08-06T12:58:59;100380.44;;;20.30
8533;BMP280;4304;53.876;10.662;2023-08-06T13:01:25;100404.88;;;20.54
8533;BMP280;4304;53.876;10.662;2023-08-06T13:03:51;100411.44;;;20.58
8533;BMP280;4304;53.876;10.662;2023-08-06T13:06:16;100381.28;;;20.22
8533;BMP280;4304;53.876;10.662;2023-08-06T13:08:42;100398.00;;;20.45
8533;BMP280;4304;53.876;10.662;2023-08-06T13:11:07;100404.34;;;20.28
8533;BMP280;4304;53.876;10.662;2023-08-06T13:13:32;100392.97;;;20.28
8533;BMP280;4304;53.876;10.662;2023-08-06T13:15:58;100391.41;;;20.11
8533;BMP280;4304;53.876;10.662;2023-08-06T13:18:23;100391.22;;;20.13
8533;BMP280;4304;53.876;10.662;2023-08-06T13:20:48;100384.25;;;20.19
8533;BMP280;4304;53.876;10.662;2023-08-06T13:23:17;100393.56;;;20.00
8533;BMP280;4304;53.876;10.662;2023-08-06T13:25:43;100375.50;;;19.81
8533;BMP280;4304;53.876;10.662;2023-08-06T13:28:08;100389.88;;;19.70
8533;BMP280;4304;53.876;10.662;2023-08-06T13:30:34;100387.56;;;19.75
8533;BMP280;4304;53.876;10.662;2023-08-06T13:33:01;100383.91;;;19.76
8533;BMP280;4304;53.876;10.662;2023-08-06T13:35:26;100385.41;;;19.87
8533;BMP280;4304;53.876;10.662;2023-08-06T13:37:52;100400.47;;;20.16
8533;BMP280;4304;53.876;10.662;2023-08-06T13:40:18;100386.56;;;20.22
8533;BMP280;4304;53.876;10.662;2023-08-06T13:42:43;100381.75;;;19.96
8533;BMP280;4304;53.876;10.662;2023-08-06T13:45:09;100379.84;;;20.12
8533;BMP280;4304;53.876;10.662;2023-08-06T13:47:34;100384.34;;;20.04
8533;BMP280;4304;53.876;10.662;2023-08-06T13:50:00;100385.16;;;20.04
8533;BMP280;4304;53.876;10.662;2023-08-06T13:52:26;100388.22;;;20.23
8533;BMP280;4304;53.876;10.662;2023-08-06T13:54:52;100384.75;;;20.23
8533;BMP280;4304;53.876;10.662;2023-08-06T13:57:17;100391.06;;;20.14
8533;BMP280;4304;53.876;10.662;2023-08-06T13:59:43;100390.44;;;20.04
8533;BMP280;4304;53.876;10.662;2023-08-06T14:02:09;100379.13;;;19.88
8533;BMP280;4304;53.876;10.662;2023-08-06T14:04:34;100398.66;;;20.09
8533;BMP280;4304;53.876;10.662;2023-08-06T14:06:59;100406.28;;;19.96
8533;BMP280;4304;53.876;10.662;2023-08-06T14:09:25;100393.47;;;19.77
8533;BMP280;4304;53.876;10.662;2023-08-06T14:11:50;100390.13;;;19.83